Time;durP1;ratioP1;P1;durP2;ratioP2;P2;SDS_P1;SDS_P2;PMS_P1;PMS_P2;Temp;Humidity;BMP_temperature;BMP_pressure;BME280_temperature;BME280_humidity;BME280_pressure;Samples;Min_cycle;Max_cycle;Signal;HPM_P1;HPM_P2
2023/06/04 00:00:12;;;;;;;3.43;2.33;;;12.60;35.60;;;;;;5074770;28;20269;-77
2023/06/04 00:02:39;;;;;;;3.67;1.90;;;12.70;35.90;;;;;;5074592;28;20282;-77
2023/06/04 00:05:06;;;;;;;3.83;2.00;;;12.60;35.80;;;;;;5074499;28;20247;-77
2023/06/04 00:07:33;;;;;;;4.67;2.10;;;12.60;35.80;;;;;;5074088;28;20225;-77
2023/06/04 00:09:59;;;;;;;2.50;2.10;;;12.60;35.70;;;;;;5074243;28;20201;-77
2023/06/04 00:12:27;;;;;;;4.77;2.30;;;12.50;35.70;;;;;;5074364;28;20251;-77
2023/06/04 00:14:54;;;;;;;4.03;2.37;;;12.50;35.70;;;;;;5074221;28;20254;-77
2023/06/04 00:17:20;;;;;;;2.93;2.10;;;12.50;35.70;;;;;;5074198;28;20656;-77
2023/06/04 00:19:47;;;;;;;5.77;2.40;;;12.50;36.30;;;;;;5074141;28;20193;-77
2023/06/04 00:22:14;;;;;;;3.93;2.20;;;12.40;35.70;;;;;;5073973;28;20193;-77
2023/06/04 00:24:41;;;;;;;3.10;2.27;;;12.50;35.70;;;;;;5073918;28;20656;-77
2023/06/04 00:27:08;;;;;;;3.43;2.33;;;12.40;35.80;;;;;;5074065;28;20228;-76
2023/06/04 00:29:37;;;;;;;3.37;2.37;;;12.40;35.90;;;;;;5074011;28;20243;-77
2023/06/04 00:32:04;;;;;;;5.20;2.57;;;12.30;35.90;;;;;;5073863;28;20193;-77
2023/06/04 00:34:31;;;;;;;3.17;2.53;;;12.20;36.00;;;;;;5073808;28;20200;-76
2023/06/04 00:36:57;;;;;;;3.10;2.60;;;12.00;36.80;;;;;;5073112;28;20193;-76
2023/06/04 00:39:24;;;;;;;4.93;2.33;;;12.20;36.90;;;;;;5073389;28;20204;-76
2023/06/04 00:41:50;;;;;;;3.10;2.67;;;12.10;36.60;;;;;;5073871;28;20522;-76
2023/06/04 00:44:17;;;;;;;4.70;2.10;;;12.10;36.70;;;;;;5073709;28;20197;-76
2023/06/04 00:46:47;;;;;;;2.60;2.10;;;12.10;37.40;;;;;;5073384;28;20742;-76
2023/06/04 00:49:14;;;;;;;3.73;2.80;;;12.00;36.70;;;;;;5073418;28;20242;-76
2023/06/04 00:51:41;;;;;;;3.00;2.40;;;12.10;38.10;;;;;;5073718;28;20525;-76
2023/06/04 00:54:09;;;;;;;3.43;2.60;;;12.00;38.00;;;;;;5073188;28;20298;-76
2023/06/04 00:56:36;;;;;;;6.30;2.73;;;12.00;38.30;;;;;;5073473;28;20294;-77
2023/06/04 00:59:04;;;;;;;4.77;2.80;;;11.90;38.50;;;;;;5073367;28;20204;-76
2023/06/04 01:01:40;;;;;;;3.80;2.70;;;11.90;39.00;;;;;;5073411;28;20201;-77
2023/06/04 01:04:13;;;;;;;4.43;3.20;;;11.80;39.10;;;;;;5072954;28;20236;-76
2023/06/04 01:06:42;;;;;;;6.73;2.73;;;11.60;39.80;;;;;;5073355;28;20290;-75
2023/06/04 01:09:10;;;;;;;6.03;2.83;;;11.60;39.70;;;;;;5073157;28;20197;-77
2023/06/04 01:11:37;;;;;;;6.07;3.10;;;11.70;40.40;;;;;;5073176;28;20196;-76
2023/06/04 01:14:08;;;;;;;8.17;2.60;;;11.60;40.60;;;;;;5073071;28;20197;-77
2023/06/04 01:16:38;;;;;;;3.73;2.67;;;11.50;41.00;;;;;;5072943;28;20847;-77
2023/06/04 01:19:24;;;;;;;3.63;2.30;;;11.50;40.80;;;;;;5072896;28;20649;-76
2023/06/04 01:21:53;;;;;;;3.97;2.80;;;11.50;40.60;;;;;;5073157;28;20196;-76
2023/06/04 01:24:25;;;;;;;4.63;2.50;;;11.40;41.30;;;;;;5072874;28;20197;-77
2023/06/04 01:26:55;;;;;;;4.00;2.43;;;11.40;40.70;;;;;;5072911;28;20197;-76
2023/06/04 01:29:22;;;;;;;2.40;2.20;;;11.30;40.60;;;;;;5072887;28;20730;-76
2023/06/04 01:31:50;;;;;;;3.20;2.13;;;11.30;40.60;;;;;;5072957;28;20208;-77
2023/06/04 01:34:18;;;;;;;3.80;2.60;;;11.20;40.80;;;;;;5073040;28;20192;-77
2023/06/04 01:36:45;;;;;;;4.53;2.30;;;11.00;42.00;;;;;;5072917;28;20217;-76
2023/06/04 01:39:11;;;;;;;9.77;2.80;;;11.00;42.80;;;;;;5072839;28;20196;-76
2023/06/04 01:41:38;;;;;;;5.00;2.70;;;11.10;43.70;;;;;;5072750;28;20718;-76
2023/06/04 01:44:05;;;;;;;3.40;2.50;;;11.10;44.10;;;;;;5072989;28;20201;-77
2023/06/04 01:46:31;;;;;;;4.50;2.40;;;11.00;43.80;;;;;;5072666;28;20200;-76
2023/06/04 01:48:58;;;;;;;6.57;2.30;;;11.00;43.90;;;;;;5072566;28;20198;-77
2023/06/04 01:51:26;;;;;;;4.93;2.40;;;11.10;44.20;;;;;;5072610;28;20201;-77
2023/06/04 01:53:52;;;;;;;3.37;2.60;;;11.10;44.80;;;;;;5072472;28;20232;-76
2023/06/04 01:56:20;;;;;;;5.70;2.50;;;11.20;45.10;;;;;;5072474;28;20197;-76
2023/06/04 01:58:47;;;;;;;3.80;2.37;;;11.00;44.90;;;;;;5072642;28;20205;-76
2023/06/04 02:01:16;;;;;;;3.57;2.40;;;10.90;45.00;;;;;;5072936;28;20197;-76
2023/06/04 02:03:43;;;;;;;4.83;2.50;;;10.80;44.80;;;;;;5072637;28;20259;-77
2023/06/04 02:06:10;;;;;;;3.20;2.27;;;10.80;44.30;;;;;;5072624;28;20204;-77
2023/06/04 02:08:40;;;;;;;5.37;2.30;;;10.90;45.70;;;;;;5072491;28;20577;-77
2023/06/04 02:11:06;;;;;;;3.83;2.03;;;11.00;45.40;;;;;;5072732;28;20216;-77
2023/06/04 02:13:33;;;;;;;3.33;2.10;;;11.00;44.00;;;;;;5072738;28;20197;-76
2023/06/04 02:15:59;;;;;;;3.63;2.33;;;10.90;45.00;;;;;;5072342;28;20733;-77
2023/06/04 02:18:26;;;;;;;4.83;2.37;;;10.80;44.80;;;;;;5072347;28;20270;-77
2023/06/04 02:20:53;;;;;;;3.27;2.43;;;11.00;44.70;;;;;;5072562;28;20201;-76
2023/06/04 02:23:20;;;;;;;4.57;2.20;;;11.10;45.20;;;;;;5072395;28;20636;-76
2023/06/04 02:25:49;;;;;;;3.10;2.40;;;10.80;45.60;;;;;;5072461;28;20197;-76
2023/06/04 02:28:16;;;;;;;6.37;2.30;;;10.70;44.70;;;;;;5078989;28;20197;-76
2023/06/04 02:30:43;;;;;;;3.00;2.17;;;10.70;46.60;;;;;;5072495;28;20197;-77
2023/06/04 02:33:10;;;;;;;2.60;2.30;;;10.50;45.30;;;;;;5073008;28;20491;-77
2023/06/04 02:35:37;;;;;;;3.60;2.00;;;10.40;46.00;;;;;;5072156;28;20664;-77
2023/06/04 02:38:03;;;;;;;3.30;2.10;;;10.30;45.80;;;;;;5072400;28;20278;-77
2023/06/04 02:40:30;;;;;;;5.13;2.47;;;10.30;47.70;;;;;;5072361;28;20201;-77
2023/06/04 02:42:58;;;;;;;4.70;2.33;;;10.40;49.00;;;;;;5072241;28;20228;-76
2023/06/04 02:45:25;;;;;;;3.30;2.30;;;10.50;47.30;;;;;;5072182;28;20205;-77
2023/06/04 02:47:52;;;;;;;4.30;2.17;;;10.30;47.90;;;;;;5072131;28;20250;-78
2023/06/04 02:50:18;;;;;;;3.83;2.30;;;10.30;47.30;;;;;;5071968;28;20588;-78
2023/06/04 02:52:45;;;;;;;4.27;2.20;;;10.30;48.20;;;;;;5071943;28;20608;-77
2023/06/04 02:55:12;;;;;;;2.87;2.07;;;10.40;47.80;;;;;;5072226;28;20247;-77
2023/06/04 02:57:41;;;;;;;3.47;2.30;;;10.50;47.60;;;;;;5071898;28;20231;-77
2023/06/04 03:00:12;;;;;;;6.13;2.33;;;10.40;48.40;;;;;;5072021;28;20556;-78
2023/06/04 03:02:41;;;;;;;4.23;1.90;;;10.40;48.20;;;;;;5075646;28;20287;-77
2023/06/04 03:05:10;;;;;;;3.73;2.00;;;10.40;47.30;;;;;;5075512;28;20786;-77
2023/06/04 03:07:37;;;;;;;3.73;2.43;;;10.40;47.80;;;;;;5075534;28;20197;-77
2023/06/04 03:10:04;;;;;;;2.40;2.13;;;10.40;49.70;;;;;;5075550;28;20254;-75
2023/06/04 03:12:31;;;;;;;2.87;1.93;;;10.40;50.70;;;;;;5075420;28;20201;-77
2023/06/04 03:14:58;;;;;;;5.10;2.80;;;10.20;49.90;;;;;;5075434;28;20201;-78
2023/06/04 03:17:27;;;;;;;3.60;2.30;;;10.10;51.20;;;;;;5075290;28;20225;-77
2023/06/04 03:19:55;;;;;;;2.33;2.00;;;10.00;52.60;;;;;;5075561;28;20223;-77
2023/06/04 03:22:22;;;;;;;3.00;2.10;;;9.90;53.70;;;;;;5075203;28;20201;-77
2023/06/04 03:24:49;;;;;;;2.87;2.27;;;9.80;56.30;;;;;;5075338;28;20249;-78
2023/06/04 03:27:15;;;;;;;3.43;2.50;;;9.80;59.60;;;;;;5075222;28;20201;-77
2023/06/04 03:29:42;;;;;;;4.70;2.67;;;9.80;64.00;;;;;;5075055;28;20197;-77
2023/06/04 03:32:09;;;;;;;5.47;2.93;;;9.70;73.70;;;;;;5075330;28;20859;-77
2023/06/04 03:34:37;;;;;;;3.70;2.50;;;9.70;81.30;;;;;;5075160;28;20209;-78
2023/06/04 03:37:04;;;;;;;6.37;2.83;;;9.70;84.80;;;;;;5075070;28;20220;-77
2023/06/04 03:39:31;;;;;;;6.50;2.70;;;9.60;89.00;;;;;;5074850;28;20262;-77
2023/06/04 03:41:57;;;;;;;6.57;3.00;;;9.50;92.20;;;;;;5074940;28;20193;-78
2023/06/04 03:44:24;;;;;;;3.80;2.93;;;9.60;95.40;;;;;;5074799;28;20250;-77
2023/06/04 03:46:51;;;;;;;4.20;2.70;;;9.60;96.40;;;;;;5074744;28;20652;-78
2023/06/04 03:49:17;;;;;;;3.57;2.97;;;9.70;96.90;;;;;;5074936;28;20302;-78
2023/06/04 03:51:46;;;;;;;3.80;3.00;;;9.70;96.80;;;;;;5074588;28;20199;-78
2023/06/04 03:54:16;;;;;;;6.83;4.03;;;9.90;96.80;;;;;;5074546;28;20236;-78
2023/06/04 03:56:43;;;;;;;5.37;3.47;;;9.90;96.50;;;;;;5074560;28;20320;-77
2023/06/04 03:59:10;;;;;;;3.37;2.70;;;9.90;97.80;;;;;;5074514;28;20258;-78
2023/06/04 04:01:36;;;;;;;3.63;3.07;;;9.90;98.30;;;;;;5074644;28;20205;-77
2023/06/04 04:04:03;;;;;;;6.17;3.00;;;10.00;98.20;;;;;;5074567;28;20243;-78
2023/06/04 04:06:30;;;;;;;5.20;2.93;;;10.10;97.70;;;;;;5074602;28;20259;-78
2023/06/04 04:08:58;;;;;;;5.17;2.67;;;10.20;98.30;;;;;;5074445;28;20211;-75
2023/06/04 04:11:25;;;;;;;3.93;2.50;;;10.40;98.40;;;;;;5074351;28;20219;-75
2023/06/04 04:13:52;;;;;;;3.63;2.80;;;10.40;98.20;;;;;;5074179;28;20660;-78
2023/06/04 04:16:18;;;;;;;7.03;2.73;;;10.40;98.20;;;;;;5074356;28;20223;-77
2023/06/04 04:18:45;;;;;;;4.90;2.70;;;10.30;97.80;;;;;;5074196;28;20282;-78
2023/06/04 04:21:12;;;;;;;4.70;2.87;;;10.30;96.90;;;;;;5074159;28;20198;-78
2023/06/04 04:23:40;;;;;;;4.37;2.60;;;10.50;95.40;;;;;;5074120;28;20193;-77
2023/06/04 04:26:09;;;;;;;3.70;2.80;;;10.50;96.00;;;;;;5073915;28;20200;-78
2023/06/04 04:28:36;;;;;;;3.37;2.60;;;10.50;96.60;;;;;;5074328;28;20204;-78
2023/06/04 04:31:03;;;;;;;4.60;2.67;;;10.70;95.00;;;;;;5074088;28;20250;-78
2023/06/04 04:33:32;;;;;;;5.97;2.90;;;10.80;95.70;;;;;;5073841;28;20205;-78
2023/06/04 04:36:00;;;;;;;6.20;2.87;;;10.80;95.80;;;;;;5073725;28;20710;-78
2023/06/04 04:38:28;;;;;;;6.30;2.90;;;10.90;93.20;;;;;;5073641;28;20224;-78
2023/06/04 04:40:55;;;;;;;3.57;2.70;;;11.00;95.00;;;;;;5073698;28;20300;-78
2023/06/04 04:43:31;;;;;;;7.47;2.67;;;11.10;95.50;;;;;;5073636;28;20255;-77
2023/06/04 04:45:57;;;;;;;3.97;2.80;;;11.20;91.10;;;;;;5073822;28;20222;-78
2023/06/04 04:48:25;;;;;;;8.73;2.40;;;11.30;87.80;;;;;;5073553;28;20644;-78
2023/06/04 04:50:51;;;;;;;3.00;2.53;;;11.40;86.50;;;;;;5073059;28;20678;-77
2023/06/04 04:53:18;;;;;;;3.20;2.67;;;11.50;83.40;;;;;;5073260;28;20236;-78
2023/06/04 04:55:44;;;;;;;5.67;2.83;;;11.60;83.90;;;;;;5073686;28;20197;-78
2023/06/04 04:58:11;;;;;;;5.77;2.60;;;11.70;82.50;;;;;;5073452;28;20224;-78
2023/06/04 05:00:39;;;;;;;8.87;3.23;;;11.70;82.50;;;;;;5072723;28;20519;-78
2023/06/04 05:03:06;;;;;;;5.57;2.50;;;11.90;85.10;;;;;;5073239;28;20200;-77
2023/06/04 05:05:33;;;;;;;3.90;2.60;;;12.00;83.40;;;;;;5073216;28;20197;-78
2023/06/04 05:08:00;;;;;;;5.47;2.77;;;12.10;80.80;;;;;;5073249;28;20275;-78
2023/06/04 05:10:27;;;;;;;5.43;2.57;;;12.20;77.80;;;;;;5073260;28;20196;-78
2023/06/04 05:12:54;;;;;;;3.80;2.57;;;12.30;78.30;;;;;;5073135;28;20193;-78
2023/06/04 05:15:21;;;;;;;2.83;2.27;;;12.40;74.90;;;;;;5073175;28;20260;-78
2023/06/04 05:17:49;;;;;;;4.73;2.50;;;12.40;71.10;;;;;;5072988;28;20221;-75
2023/06/04 05:20:16;;;;;;;5.93;2.30;;;12.60;72.90;;;;;;5073065;28;20565;-78
2023/06/04 05:22:43;;;;;;;5.93;2.10;;;12.70;72.80;;;;;;5073198;28;20197;-78
2023/06/04 05:25:10;;;;;;;3.23;2.33;;;12.80;68.60;;;;;;5072623;28;20197;-78
2023/06/04 05:27:36;;;;;;;3.30;2.30;;;12.80;67.90;;;;;;5073009;28;20200;-78
2023/06/04 05:30:03;;;;;;;3.73;2.60;;;13.00;67.80;;;;;;5073080;28;20193;-78
2023/06/04 05:32:32;;;;;;;2.77;2.10;;;13.10;64.60;;;;;;5072916;28;20201;-79
2023/06/04 05:35:00;;;;;;;4.17;2.03;;;13.20;63.80;;;;;;5072878;28;20246;-78
2023/06/04 05:37:28;;;;;;;5.03;2.10;;;13.20;61.10;;;;;;5072631;28;20656;-77
2023/06/04 05:39:56;;;;;;;6.27;2.30;;;13.30;61.60;;;;;;5073049;28;20197;-78
2023/06/04 05:42:23;;;;;;;5.87;2.40;;;13.40;61.90;;;;;;5072847;28;20234;-78
2023/06/04 05:44:50;;;;;;;3.73;2.10;;;13.60;64.20;;;;;;5072841;28;20526;-78
2023/06/04 05:47:18;;;;;;;4.30;2.20;;;13.60;60.70;;;;;;5072772;28;20201;-78
2023/06/04 05:49:45;;;;;;;4.47;2.43;;;13.70;60.40;;;;;;5072962;28;20634;-78
2023/06/04 05:52:12;;;;;;;5.33;2.63;;;13.70;60.20;;;;;;5072931;28;20246;-78
2023/06/04 05:54:39;;;;;;;3.77;2.50;;;13.70;60.00;;;;;;5072537;28;20676;-78
2023/06/04 05:57:06;;;;;;;5.33;2.43;;;13.80;59.50;;;;;;5072832;28;20254;-78
2023/06/04 05:59:33;;;;;;;3.40;2.70;;;13.80;58.20;;;;;;5073018;28;20232;-78
2023/06/04 06:01:59;;;;;;;3.83;2.60;;;13.80;58.20;;;;;;5073273;28;20204;-77
2023/06/04 06:04:26;;;;;;;5.23;2.53;;;13.90;58.20;;;;;;5078313;28;20203;-78
2023/06/04 06:06:53;;;;;;;2.97;2.27;;;14.00;59.30;;;;;;5074901;28;20284;-78
2023/06/04 06:09:21;;;;;;;5.43;2.90;;;14.10;59.40;;;;;;5072557;28;20299;-78
2023/06/04 06:11:48;;;;;;;3.00;2.60;;;14.10;58.50;;;;;;5072389;28;20196;-78
2023/06/04 06:14:14;;;;;;;3.67;2.43;;;14.20;59.00;;;;;;5072530;28;20197;-78
2023/06/04 06:16:41;;;;;;;3.13;2.23;;;14.20;58.30;;;;;;5072701;28;20201;-78
2023/06/04 06:19:08;;;;;;;3.47;2.03;;;14.30;58.30;;;;;;5072371;28;20220;-77
2023/06/04 06:21:34;;;;;;;4.97;2.17;;;14.30;57.50;;;;;;5072473;28;20197;-78
2023/06/04 06:24:01;;;;;;;5.63;2.30;;;14.40;58.30;;;;;;5072211;28;20746;-78
2023/06/04 06:26:29;;;;;;;3.67;2.53;;;14.50;59.00;;;;;;5072138;28;20197;-78
2023/06/04 06:28:56;;;;;;;4.77;2.30;;;14.60;59.20;;;;;;5072268;28;20228;-78
2023/06/04 06:31:23;;;;;;;5.63;2.33;;;14.70;58.60;;;;;;5072176;28;20197;-78
2023/06/04 06:33:50;;;;;;;4.40;2.17;;;14.80;57.50;;;;;;5072187;28;20193;-78
2023/06/04 06:36:18;;;;;;;3.77;2.23;;;14.90;58.70;;;;;;5073970;28;20197;-78
2023/06/04 06:38:45;;;;;;;3.87;2.40;;;14.90;57.00;;;;;;5076047;28;20224;-78
2023/06/04 06:41:11;;;;;;;3.90;2.43;;;15.00;56.40;;;;;;5075887;28;20196;-78
2023/06/04 06:43:39;;;;;;;3.23;2.30;;;15.10;57.10;;;;;;5075816;28;20652;-78
2023/06/04 06:46:06;;;;;;;2.72;2.13;;;15.10;56.60;;;;;;5076042;28;20197;-78
2023/06/04 06:48:33;;;;;;;4.37;2.40;;;15.20;57.10;;;;;;5075708;28;20209;-78
2023/06/04 06:50:59;;;;;;;6.85;2.65;;;15.20;56.10;;;;;;5075625;28;20201;-78
2023/06/04 06:53:26;;;;;;;4.30;2.22;;;15.30;57.50;;;;;;5075580;28;20297;-78
2023/06/04 06:55:53;;;;;;;2.75;2.40;;;15.30;57.50;;;;;;5075622;28;20250;-79
2023/06/04 06:58:19;;;;;;;5.45;2.33;;;15.30;56.40;;;;;;5075437;28;20696;-78
2023/06/04 07:00:48;;;;;;;6.13;2.53;;;15.40;57.30;;;;;;5075771;28;20231;-79
2023/06/04 07:03:15;;;;;;;3.83;2.30;;;15.50;56.90;;;;;;5075827;28;20201;-77
2023/06/04 07:05:41;;;;;;;4.78;2.00;;;15.50;56.60;;;;;;5075565;28;20229;-79
2023/06/04 07:08:08;;;;;;;3.30;2.38;;;15.60;57.20;;;;;;5075934;28;20722;-76
2023/06/04 07:10:34;;;;;;;2.55;2.13;;;15.70;57.40;;;;;;5075454;28;20200;-75
2023/06/04 07:13:01;;;;;;;2.88;2.55;;;15.90;57.80;;;;;;5075251;28;20885;-75
2023/06/04 07:15:28;;;;;;;2.92;2.22;;;15.90;57.20;;;;;;5075465;28;20195;-75
2023/06/04 07:17:56;;;;;;;3.38;2.38;;;16.00;57.30;;;;;;5075432;28;20197;-76
2023/06/04 07:20:22;;;;;;;4.78;2.45;;;16.10;57.60;;;;;;5075449;28;20296;-78
2023/06/04 07:22:49;;;;;;;5.13;2.63;;;16.10;57.20;;;;;;5075384;28;20729;-83
2023/06/04 07:25:16;;;;;;;3.08;2.70;;;16.20;57.10;;;;;;5075363;28;20739;-82
2023/06/04 07:27:42;;;;;;;3.42;2.53;;;16.30;57.20;;;;;;5075886;28;20706;-83
2023/06/04 07:30:10;;;;;;;3.47;2.40;;;16.30;55.90;;;;;;5075312;28;20196;-76
2023/06/04 07:32:37;;;;;;;4.47;2.80;;;16.40;57.40;;;;;;5075098;28;20197;-79
2023/06/04 07:35:06;;;;;;;3.53;2.42;;;16.40;56.00;;;;;;5075242;28;20595;-79
2023/06/04 07:37:32;;;;;;;5.30;2.47;;;16.50;56.10;;;;;;5075068;28;20611;-79
2023/06/04 07:39:59;;;;;;;4.82;2.90;;;16.60;56.50;;;;;;5074924;28;20228;-81
2023/06/04 07:42:25;;;;;;;3.55;2.60;;;16.80;55.30;;;;;;5075246;28;20201;-81
2023/06/04 07:44:52;;;;;;;4.57;2.60;;;16.90;54.50;;;;;;5074631;28;20259;-77
2023/06/04 07:47:19;;;;;;;3.30;2.33;;;17.20;55.60;;;;;;5074431;28;20651;-75
2023/06/04 07:49:45;;;;;;;3.80;2.65;;;17.40;54.20;;;;;;5074821;28;20201;-75
2023/06/04 07:52:14;;;;;;;4.40;2.40;;;17.60;54.50;;;;;;5074593;28;20660;-75
2023/06/04 07:54:41;;;;;;;4.30;2.72;;;17.90;54.10;;;;;;5074823;28;20244;-77
2023/06/04 07:57:08;;;;;;;3.65;2.53;;;18.10;51.90;;;;;;5074711;28;20275;-74
2023/06/04 07:59:35;;;;;;;5.82;2.47;;;18.20;52.00;;;;;;5074569;28;20232;-75
2023/06/04 08:02:01;;;;;;;3.40;2.58;;;18.50;52.40;;;;;;5074753;28;20631;-75
2023/06/04 08:04:28;;;;;;;3.05;2.20;;;18.70;51.60;;;;;;5074664;28;20239;-75
2023/06/04 08:06:55;;;;;;;3.67;2.50;;;18.90;52.00;;;;;;5074345;28;20274;-74
2023/06/04 08:09:22;;;;;;;8.20;2.75;;;19.10;50.70;;;;;;5074369;28;20688;-74
2023/06/04 08:11:50;;;;;;;4.35;2.40;;;19.10;50.10;;;;;;5074391;28;20196;-74
2023/06/04 08:14:16;;;;;;;2.45;2.13;;;19.30;49.90;;;;;;5074283;28;20201;-74
2023/06/04 08:16:43;;;;;;;3.10;2.58;;;19.40;49.90;;;;;;5074014;28;20196;-73
2023/06/04 08:19:10;;;;;;;3.85;2.88;;;19.80;49.20;;;;;;5074151;28;20251;-74
2023/06/04 08:21:37;;;;;;;7.32;2.47;;;20.00;48.70;;;;;;5074126;28;20201;-74
2023/06/04 08:24:04;;;;;;;3.95;2.78;;;20.30;48.00;;;;;;5074089;28;20391;-74
2023/06/04 08:26:32;;;;;;;3.50;2.78;;;20.40;47.80;;;;;;5074167;28;20201;-75
2023/06/04 08:28:59;;;;;;;6.07;2.78;;;20.30;46.80;;;;;;5074035;28;20660;-76
2023/06/04 08:31:26;;;;;;;3.38;2.38;;;20.50;45.80;;;;;;5074018;28;20196;-77
2023/06/04 08:33:52;;;;;;;3.60;2.47;;;20.60;45.70;;;;;;5073842;28;20197;-76
2023/06/04 08:36:19;;;;;;;3.42;2.70;;;20.80;44.70;;;;;;5073686;28;20200;-76
2023/06/04 08:38:50;;;;;;;4.80;3.00;;;21.00;44.50;;;;;;5073866;28;20213;-76
2023/06/04 08:41:23;;;;;;;4.45;2.95;;;21.10;43.90;;;;;;5073791;28;20232;-76
2023/06/04 08:43:51;;;;;;;5.78;2.65;;;21.20;42.40;;;;;;5073794;28;20201;-76
2023/06/04 08:46:19;;;;;;;4.18;2.40;;;21.40;41.70;;;;;;5073857;28;20204;-76
2023/06/04 08:48:46;;;;;;;2.83;2.53;;;21.60;41.70;;;;;;5073572;28;20201;-77
2023/06/04 08:51:13;;;;;;;6.53;3.00;;;21.90;41.70;;;;;;5073747;28;20255;-77
2023/06/04 08:53:42;;;;;;;3.92;2.60;;;22.00;40.60;;;;;;5073532;28;20278;-75
2023/06/04 08:56:09;;;;;;;4.43;2.80;;;21.60;39.10;;;;;;5073570;28;20197;-76
2023/06/04 08:58:38;;;;;;;2.92;2.60;;;21.80;40.30;;;;;;5072790;28;20193;-75
2023/06/04 09:01:07;;;;;;;3.13;2.50;;;22.20;39.50;;;;;;5073259;28;20205;-75
2023/06/04 09:03:33;;;;;;;4.85;2.70;;;22.50;38.00;;;;;;5073182;28;20736;-76
2023/06/04 09:06:01;;;;;;;4.22;2.53;;;22.80;37.30;;;;;;5071031;28;20227;-79
2023/06/04 09:08:31;;;;;;;4.40;2.50;;;22.70;36.70;;;;;;5058123;28;20539;-83
2023/06/04 09:10:58;;;;;;;4.50;2.63;;;22.90;36.20;;;;;;5059783;28;20557;-83
2023/06/04 09:13:32;;;;;;;2.65;2.45;;;23.10;35.80;;;;;;5053313;28;20202;-83
2023/06/04 09:16:02;;;;;;;3.80;2.80;;;23.10;35.00;;;;;;5073534;28;20197;-79
2023/06/04 09:18:30;;;;;;;4.53;2.42;;;23.00;34.10;;;;;;5072805;28;20204;-79
2023/06/04 09:21:05;;;;;;;5.45;2.97;;;23.30;33.60;;;;;;5073047;28;20311;-81
2023/06/04 09:23:32;;;;;;;3.58;2.70;;;23.40;33.60;;;;;;5072788;28;20200;-79
2023/06/04 09:26:07;;;;;;;4.20;2.83;;;23.90;33.30;;;;;;5072996;28;20284;-79
2023/06/04 09:28:34;;;;;;;4.35;2.78;;;24.30;31.40;;;;;;5072023;28;20658;-77
2023/06/04 09:31:02;;;;;;;3.40;2.72;;;24.30;30.70;;;;;;5074202;28;20200;-78
2023/06/04 09:33:30;;;;;;;5.82;2.80;;;24.50;31.00;;;;;;5090695;28;20200;-77
2023/06/04 09:35:57;;;;;;;6.65;2.95;;;24.60;30.00;;;;;;5090726;28;20600;-78
2023/06/04 09:38:24;;;;;;;3.50;2.83;;;24.70;30.00;;;;;;5090645;28;20287;-78
2023/06/04 09:40:51;;;;;;;4.25;2.90;;;24.70;29.40;;;;;;5090535;28;20223;-78
2023/06/04 09:43:24;;;;;;;6.65;2.92;;;24.80;29.10;;;;;;5090836;28;20200;-76
2023/06/04 09:45:51;;;;;;;3.50;2.53;;;25.20;28.90;;;;;;5090317;28;20210;-79
2023/06/04 09:48:22;;;;;;;4.22;2.70;;;25.10;27.80;;;;;;5090581;28;20197;-78
2023/06/04 09:50:50;;;;;;;3.47;2.53;;;25.30;28.70;;;;;;5090674;28;20223;-78
2023/06/04 09:53:22;;;;;;;4.43;2.60;;;25.20;27.20;;;;;;5090769;28;20261;-78
2023/06/04 09:55:57;;;;;;;4.25;2.55;;;24.90;27.30;;;;;;5090662;28;20265;-79
2023/06/04 09:58:26;;;;;;;2.80;2.50;;;25.60;28.20;;;;;;5089938;28;20205;-79
2023/06/04 10:00:54;;;;;;;3.22;2.80;;;26.10;27.60;;;;;;5090440;28;20235;-78
2023/06/04 10:03:25;;;;;;;7.95;2.80;;;26.40;26.80;;;;;;5090508;28;20203;-78
2023/06/04 10:05:54;;;;;;;6.20;2.97;;;26.10;27.20;;;;;;5090411;28;20682;-79
2023/06/04 10:08:23;;;;;;;5.57;2.33;;;26.70;26.50;;;;;;5090000;28;20200;-78
2023/06/04 10:10:52;;;;;;;2.75;2.35;;;27.00;25.30;;;;;;5092267;28;20206;-79
2023/06/04 10:13:19;;;;;;;3.97;2.78;;;27.40;24.90;;;;;;5094545;28;20556;-79
2023/06/04 10:15:47;;;;;;;4.93;2.92;;;27.50;24.70;;;;;;5094491;28;20249;-79
2023/06/04 10:18:14;;;;;;;4.97;2.70;;;27.40;24.70;;;;;;5094203;28;20265;-79
2023/06/04 10:20:41;;;;;;;4.88;2.50;;;27.50;24.20;;;;;;5094315;28;20710;-78
2023/06/04 10:23:09;;;;;;;4.95;2.53;;;27.70;24.00;;;;;;5094318;28;20534;-77
2023/06/04 10:25:36;;;;;;;5.68;2.58;;;28.00;22.40;;;;;;5094341;28;20206;-78
2023/06/04 10:28:04;;;;;;;2.83;2.22;;;27.90;22.80;;;;;;5094282;28;20250;-79
2023/06/04 10:30:31;;;;;;;5.97;2.88;;;27.60;23.10;;;;;;5094235;28;20207;-78
2023/06/04 10:32:58;;;;;;;4.25;2.50;;;28.10;22.60;;;;;;5094513;28;20258;-78
2023/06/04 10:35:32;;;;;;;2.60;2.40;;;27.40;22.50;;;;;;5094068;28;20208;-78
2023/06/04 10:38:06;;;;;;;3.67;2.60;;;26.30;23.20;;;;;;5094083;28;20273;-78
2023/06/04 10:40:35;;;;;;;3.85;2.75;;;26.20;23.30;;;;;;5094080;28;20694;-78
2023/06/04 10:43:06;;;;;;;3.13;2.70;;;27.10;24.00;;;;;;5094122;28;20200;-78
2023/06/04 10:45:33;;;;;;;3.70;2.40;;;28.50;22.60;;;;;;5093802;28;20196;-78
2023/06/04 10:48:01;;;;;;;4.18;2.78;;;29.20;21.70;;;;;;5093999;28;20203;-79
2023/06/04 10:50:28;;;;;;;5.60;2.50;;;30.10;20.90;;;;;;5093780;28;20199;-79
2023/06/04 10:52:57;;;;;;;2.97;2.67;;;30.70;19.20;;;;;;5093791;28;20231;-79
2023/06/04 10:55:24;;;;;;;3.75;2.40;;;31.10;19.10;;;;;;5093669;28;20192;-79
2023/06/04 10:57:57;;;;;;;4.15;2.58;;;30.90;19.00;;;;;;5093338;28;20324;-78
2023/06/04 11:00:34;;;;;;;3.78;2.55;;;31.50;17.40;;;;;;5093827;28;20219;-78
2023/06/04 11:03:02;;;;;;;2.90;2.38;;;32.20;17.70;;;;;;5084555;28;20201;-84
2023/06/04 11:05:36;;;;;;;2.75;2.40;;;33.10;17.10;;;;;;5063252;28;20193;-82
2023/06/04 11:08:03;;;;;;;3.85;2.38;;;32.50;17.10;;;;;;5075989;28;20185;-81
2023/06/04 11:10:33;;;;;;;4.15;2.30;;;32.80;16.40;;;;;;5075026;28;20238;-82
2023/06/04 11:13:03;;;;;;;3.35;2.35;;;33.40;15.70;;;;;;5075588;28;20525;-81
2023/06/04 11:15:38;;;;;;;3.83;2.20;;;34.00;15.30;;;;;;5075459;28;20195;-81
2023/06/04 11:18:05;;;;;;;3.83;2.80;;;33.20;14.10;;;;;;5075766;28;20200;-80
2023/06/04 11:20:32;;;;;;;4.50;2.63;;;32.70;14.10;;;;;;5075835;28;20193;-78
2023/06/04 11:23:02;;;;;;;3.63;2.60;;;32.00;14.50;;;;;;5074711;28;20725;-78
2023/06/04 11:25:30;;;;;;;3.75;2.53;;;31.70;14.80;;;;;;5075499;28;20192;-78
2023/06/04 11:27:57;;;;;;;3.15;2.45;;;30.90;15.30;;;;;;5075008;28;20648;-78
2023/06/04 11:30:25;;;;;;;2.75;2.20;;;31.70;15.80;;;;;;5075101;28;20232;-79
2023/06/04 11:33:02;;;;;;;2.75;2.50;;;33.80;14.10;;;;;;5074804;28;20652;-79
2023/06/04 11:35:28;;;;;;;3.15;2.28;;;34.30;13.20;;;;;;5075332;28;20210;-79
2023/06/04 11:37:56;;;;;;;2.75;2.42;;;35.10;12.90;;;;;;5074797;28;20668;-79
2023/06/04 11:40:23;;;;;;;4.90;2.55;;;36.00;11.80;;;;;;5075856;28;20204;-83
2023/06/04 11:42:50;;;;;;;2.70;2.30;;;36.20;11.40;;;;;;5075171;28;20622;-82
2023/06/04 11:45:18;;;;;;;2.80;2.30;;;36.20;10.50;;;;;;5075106;28;20201;-81
2023/06/04 11:47:48;;;;;;;2.78;2.30;;;36.40;10.40;;;;;;5074685;28;20295;-80
2023/06/04 11:50:15;;;;;;;2.70;2.50;;;36.80;9.70;;;;;;5074870;28;20224;-79
2023/06/04 11:52:41;;;;;;;2.85;2.42;;;36.00;9.10;;;;;;5074621;28;20224;-82
2023/06/04 11:55:10;;;;;;;3.75;2.50;;;34.30;9.10;;;;;;5074520;28;20656;-80
2023/06/04 11:57:37;;;;;;;2.30;2.10;;;32.80;10.10;;;;;;5074640;28;20229;-81
2023/06/04 12:00:07;;;;;;;2.38;2.17;;;33.80;10.00;;;;;;5074430;28;20197;-82
2023/06/04 12:02:34;;;;;;;4.63;2.38;;;35.20;9.30;;;;;;5074971;28;20231;-82
2023/06/04 12:05:13;;;;;;;2.95;2.42;;;35.60;8.60;;;;;;5074854;28;20200;-81
2023/06/04 12:07:39;;;;;;;3.35;2.42;;;35.00;8.60;;;;;;5074776;28;20651;-76
2023/06/04 12:10:07;;;;;;;3.00;2.70;;;34.70;8.80;;;;;;5074467;28;20286;-78
2023/06/04 12:12:34;;;;;;;3.38;2.35;;;33.20;9.30;;;;;;5073652;28;20659;-78
2023/06/04 12:15:01;;;;;;;5.18;2.80;;;32.50;10.30;;;;;;5074852;28;20203;-78
2023/06/04 12:17:28;;;;;;;5.72;2.70;;;33.90;10.90;;;;;;5074618;28;20197;-78
2023/06/04 12:19:56;;;;;;;4.38;2.58;;;36.00;10.40;;;;;;5074675;28;20200;-78
2023/06/04 12:22:23;;;;;;;5.28;2.97;;;36.30;9.70;;;;;;5074588;28;20211;-78
2023/06/04 12:24:53;;;;;;;4.60;2.60;;;36.60;9.50;;;;;;5074656;28;20256;-78
2023/06/04 12:27:22;;;;;;;4.80;2.40;;;37.00;9.60;;;;;;5074442;28;20200;-79
2023/06/04 12:29:56;;;;;;;3.65;2.58;;;37.30;8.10;;;;;;5074534;28;20266;-78
2023/06/04 12:32:23;;;;;;;2.63;2.42;;;37.30;8.50;;;;;;5074275;28;20196;-78
2023/06/04 12:34:49;;;;;;;3.00;2.70;;;38.10;8.00;;;;;;5073582;28;20238;-79
2023/06/04 12:37:16;;;;;;;3.75;2.50;;;37.80;7.10;;;;;;5077150;28;20201;-78
2023/06/04 12:39:44;;;;;;;2.55;2.30;;;36.20;7.50;;;;;;5074070;28;20226;-78
2023/06/04 12:42:11;;;;;;;5.38;2.70;;;35.60;8.30;;;;;;5074062;28;20664;-78
2023/06/04 12:44:38;;;;;;;4.68;2.60;;;36.30;8.00;;;;;;5074160;28;20256;-78
2023/06/04 12:47:05;;;;;;;5.25;2.55;;;36.70;7.60;;;;;;5074139;28;20196;-79
2023/06/04 12:49:32;;;;;;;2.58;2.35;;;36.90;7.30;;;;;;5074182;28;20250;-79